createdAt,value
2018-03-11T00:00:08.692Z,13.94
2018-03-11T00:02:37.045Z,13.96
2018-03-11T00:05:05.432Z,13.85
2018-03-11T00:07:33.802Z,13.85
2018-03-11T00:10:02.168Z,13.95
2018-03-11T00:12:30.529Z,13.93
2018-03-11T00:14:58.899Z,13.88
2018-03-11T00:17:27.751Z,13.86
2018-03-11T00:19:56.116Z,13.92
2018-03-11T00:22:24.487Z,13.98
2018-03-11T00:24:52.840Z,13.97
2018-03-11T00:27:21.241Z,14.06
2018-03-11T00:29:49.620Z,14.05
2018-03-11T00:32:18.022Z,13.91
2018-03-11T00:34:46.414Z,14.07
2018-03-11T00:37:14.738Z,13.98
2018-03-11T00:39:43.239Z,14.05
2018-03-11T00:42:11.616Z,14.04
2018-03-11T00:44:39.977Z,14.09
2018-03-11T00:47:08.383Z,14.03
2018-03-11T00:49:36.749Z,14.01
2018-03-11T00:52:05.109Z,13.97
2018-03-11T00:54:33.511Z,14.10
2018-03-11T00:57:01.887Z,14.20
2018-03-11T00:59:30.247Z,13.98
2018-03-11T01:01:58.598Z,13.68
2018-03-11T01:04:27.372Z,13.82
2018-03-11T01:06:55.813Z,13.91
2018-03-11T01:09:24.196Z,13.79
2018-03-11T01:11:52.562Z,13.44
2018-03-11T01:14:20.932Z,13.75
2018-03-11T01:16:49.296Z,13.70
2018-03-11T01:19:18.048Z,13.83
2018-03-11T01:21:46.428Z,13.82
2018-03-11T01:24:14.786Z,13.83
2018-03-11T01:26:43.150Z,13.86
2018-03-11T01:29:11.528Z,13.87
2018-03-11T01:31:39.907Z,13.90
2018-03-11T01:34:08.250Z,13.74
2018-03-11T01:36:37.012Z,13.89
2018-03-11T01:39:05.459Z,13.81
2018-03-11T01:41:33.823Z,13.83
2018-03-11T01:44:02.192Z,13.87
2018-03-11T01:46:30.563Z,14.04
2018-03-11T01:48:58.919Z,14.03
2018-03-11T01:51:27.776Z,13.99
2018-03-11T01:53:56.128Z,13.79
2018-03-11T01:56:24.532Z,13.55
2018-03-11T01:58:52.900Z,13.69
2018-03-11T02:01:21.267Z,13.73
2018-03-11T02:03:49.622Z,13.74
2018-03-11T02:06:17.988Z,13.82
2018-03-11T02:08:46.828Z,13.77
2018-03-11T02:11:15.185Z,13.87
2018-03-11T02:13:43.532Z,13.87
2018-03-11T02:16:12.325Z,14.00
2018-03-11T02:18:41.160Z,14.02
2018-03-11T02:21:14.229Z,13.78
2018-03-11T02:23:42.579Z,13.78
2018-03-11T02:26:11.943Z,13.68
2018-03-11T02:28:40.315Z,13.81
2018-03-11T02:31:08.679Z,13.67
2018-03-11T02:33:37.082Z,13.65
2018-03-11T02:36:05.563Z,13.39
2018-03-11T02:38:33.953Z,13.29
2018-03-11T02:41:02.409Z,13.36
2018-03-11T02:43:30.754Z,13.29
2018-03-11T02:45:59.273Z,13.26
2018-03-11T02:48:27.645Z,13.46
2018-03-11T02:50:56.668Z,13.50
2018-03-11T02:53:25.027Z,13.41
2018-03-11T02:55:53.394Z,13.24
2018-03-11T02:58:21.754Z,13.05
2018-03-11T03:00:50.156Z,13.11
2018-03-11T03:03:18.519Z,13.15
2018-03-11T03:05:46.879Z,13.11
2018-03-11T03:08:15.295Z,12.85
2018-03-11T03:10:43.658Z,12.91
2018-03-11T03:13:12.020Z,12.78
2018-03-11T03:15:40.513Z,12.80
2018-03-11T03:18:08.860Z,12.83
2018-03-11T03:20:37.707Z,12.86
2018-03-11T03:23:06.086Z,12.74
2018-03-11T03:25:34.460Z,12.78
2018-03-11T03:28:02.838Z,12.85
2018-03-11T03:30:31.212Z,12.83
2018-03-11T03:32:59.554Z,12.62
2018-03-11T03:35:27.922Z,12.63
2018-03-11T03:37:56.674Z,12.50
2018-03-11T03:40:25.044Z,12.71
2018-03-11T03:42:53.409Z,12.74
2018-03-11T03:45:21.792Z,12.64
2018-03-11T03:47:50.171Z,12.73
2018-03-11T03:50:18.528Z,12.70
2018-03-11T03:52:46.881Z,12.68
2018-03-11T03:55:15.634Z,12.76
2018-03-11T03:57:43.986Z,12.79
2018-03-11T04:00:12.400Z,12.76
2018-03-11T04:02:40.744Z,12.41
2018-03-11T04:05:09.102Z,12.43
2018-03-11T04:07:37.465Z,12.59
2018-03-11T04:10:06.288Z,12.64
2018-03-11T04:12:34.655Z,12.68
2018-03-11T04:15:03.090Z,12.58
2018-03-11T04:17:31.439Z,12.65
2018-03-11T04:19:59.795Z,12.65
2018-03-11T04:22:28.147Z,12.50
2018-03-11T04:24:56.983Z,12.60
2018-03-11T04:27:25.328Z,12.60
2018-03-11T04:29:53.744Z,12.53
2018-03-11T04:32:22.104Z,12.52
2018-03-11T04:34:50.463Z,12.58
2018-03-11T04:37:18.866Z,12.61
2018-03-11T04:39:47.206Z,12.74
2018-03-11T04:42:16.040Z,12.63
2018-03-11T04:44:44.419Z,12.73
2018-03-11T04:47:12.773Z,12.68
2018-03-11T04:49:41.126Z,12.72
2018-03-11T04:52:09.959Z,12.63
2018-03-11T04:54:38.302Z,12.57
2018-03-11T04:57:07.143Z,12.57
2018-03-11T04:59:35.495Z,12.59
2018-03-11T05:02:03.857Z,12.48
2018-03-11T05:04:32.264Z,12.32
2018-03-11T05:07:00.619Z,12.37
2018-03-11T05:09:28.973Z,12.41
2018-03-11T05:11:57.722Z,12.34
2018-03-11T05:14:26.765Z,12.47
2018-03-11T05:16:55.515Z,12.42
2018-03-11T05:19:23.872Z,12.39
2018-03-11T05:21:52.248Z,12.27
2018-03-11T05:24:20.691Z,12.23
2018-03-11T05:26:49.015Z,12.12
2018-03-11T05:29:17.488Z,12.24
2018-03-11T05:31:45.852Z,12.34
2018-03-11T05:34:14.254Z,12.06
2018-03-11T05:36:42.635Z,11.99
2018-03-11T05:39:11.016Z,11.90
2018-03-11T05:41:39.380Z,11.97
2018-03-11T05:44:07.796Z,12.11
2018-03-11T05:46:36.148Z,12.12
2018-03-11T05:49:04.503Z,11.91
2018-03-11T05:51:32.989Z,11.84
2018-03-11T05:54:01.337Z,11.93
2018-03-11T05:56:30.779Z,12.07
2018-03-11T05:58:59.166Z,12.19
2018-03-11T06:01:27.520Z,12.52
2018-03-11T06:03:55.864Z,13.40
2018-03-11T06:06:24.619Z,14.44
2018-03-11T06:08:52.985Z,14.99
2018-03-11T06:11:21.343Z,15.71
2018-03-11T06:13:49.724Z,16.26
2018-03-11T06:16:18.119Z,16.53
2018-03-11T06:18:46.476Z,16.94
2018-03-11T06:21:14.879Z,16.87
2018-03-11T06:23:43.240Z,17.17
2018-03-11T06:26:11.645Z,17.09
2018-03-11T06:28:40.025Z,17.17
2018-03-11T06:31:08.390Z,17.45
2018-03-11T06:33:36.769Z,17.73
2018-03-11T06:36:05.131Z,17.98
2018-03-11T06:38:33.510Z,18.16
2018-03-11T06:41:01.912Z,18.74
2018-03-11T06:43:30.264Z,18.95
2018-03-11T06:45:58.673Z,19.19
2018-03-11T06:48:27.032Z,19.97
2018-03-11T06:50:55.399Z,20.19
2018-03-11T06:53:23.809Z,21.00
2018-03-11T06:55:52.171Z,21.77
2018-03-11T06:58:20.527Z,22.58
2018-03-11T07:00:48.890Z,23.13
2018-03-11T07:03:17.640Z,23.47
2018-03-11T07:05:46.007Z,23.45
2018-03-11T07:08:14.367Z,23.68
2018-03-11T07:10:42.735Z,22.37
2018-03-11T07:13:11.151Z,21.97
2018-03-11T07:15:39.508Z,22.13
2018-03-11T07:18:07.906Z,22.66
2018-03-11T07:20:36.275Z,23.05
2018-03-11T07:23:04.633Z,23.30
2018-03-11T07:25:33.044Z,23.35
2018-03-11T07:28:01.397Z,23.67
2018-03-11T07:30:29.796Z,24.58
2018-03-11T07:32:58.151Z,25.24
2018-03-11T07:35:26.561Z,25.51
2018-03-11T07:37:54.927Z,26.67
2018-03-11T07:40:23.292Z,26.37
2018-03-11T07:42:51.652Z,26.86
2018-03-11T07:45:20.015Z,27.19
2018-03-11T07:47:48.778Z,27.13
2018-03-11T07:50:17.191Z,27.19
2018-03-11T07:52:45.943Z,27.43
2018-03-11T07:55:14.841Z,27.61
2018-03-11T07:57:43.612Z,28.29
2018-03-11T08:00:12.018Z,27.91
2018-03-11T08:02:40.372Z,27.58
2018-03-11T08:05:08.740Z,28.23
2018-03-11T08:07:37.092Z,28.84
2018-03-11T08:10:05.456Z,28.28
2018-03-11T08:12:34.206Z,28.28
2018-03-11T08:15:02.682Z,29.83
2018-03-11T08:17:31.467Z,30.82
2018-03-11T08:19:59.824Z,31.33
2018-03-11T08:22:28.186Z,31.13
2018-03-11T08:24:56.541Z,30.80
2018-03-11T08:30:23.064Z,30.98
2018-03-11T08:32:51.932Z,31.10
2018-03-11T08:35:20.323Z,31.38
2018-03-11T08:37:48.671Z,30.83
2018-03-11T08:40:17.072Z,30.46
2018-03-11T08:42:45.449Z,30.77
2018-03-11T08:45:13.827Z,31.05
2018-03-11T08:47:42.204Z,30.75
2018-03-11T08:50:10.570Z,31.17
2018-03-11T08:52:38.930Z,30.96
2018-03-11T08:55:07.347Z,30.47
2018-03-11T08:57:35.696Z,30.42
2018-03-11T09:00:04.059Z,30.88
2018-03-11T09:02:32.456Z,31.88
2018-03-11T09:05:00.845Z,31.46
2018-03-11T09:07:29.232Z,31.48
2018-03-11T09:09:57.608Z,32.79
2018-03-11T09:12:26.005Z,33.69
2018-03-11T09:14:54.378Z,34.46
2018-03-11T09:17:22.735Z,34.35
2018-03-11T09:19:51.850Z,34.24
2018-03-11T09:22:20.203Z,33.82
2018-03-11T09:24:48.582Z,33.79
2018-03-11T09:27:16.942Z,32.41
2018-03-11T09:29:45.316Z,32.06
2018-03-11T09:32:13.743Z,31.72
2018-03-11T09:34:42.103Z,31.71
2018-03-11T09:37:10.501Z,32.57
2018-03-11T09:39:38.885Z,33.35
2018-03-11T09:42:07.267Z,33.38
2018-03-11T09:44:35.619Z,32.45
2018-03-11T09:47:04.021Z,32.04
2018-03-11T09:49:32.395Z,30.71
2018-03-11T09:52:00.749Z,30.28
2018-03-11T09:54:29.124Z,30.80
2018-03-11T09:56:57.545Z,30.78
2018-03-11T09:59:25.855Z,30.50
2018-03-11T10:03:46.349Z,29.70
2018-03-11T10:06:14.803Z,29.42
2018-03-11T10:08:43.159Z,29.99
2018-03-11T10:11:11.520Z,29.18
2018-03-11T10:13:39.880Z,29.73
2018-03-11T10:16:08.748Z,29.78
2018-03-11T10:18:37.104Z,29.86
2018-03-11T10:21:05.482Z,30.34
2018-03-11T10:23:33.827Z,30.31
2018-03-11T10:26:02.193Z,30.03
2018-03-11T10:28:30.560Z,30.25
2018-03-11T10:30:58.920Z,29.54
2018-03-11T10:33:27.284Z,29.62
2018-03-11T10:35:55.774Z,29.40
2018-03-11T10:38:24.148Z,29.42
2018-03-11T10:40:52.539Z,29.57
2018-03-11T10:43:20.909Z,29.51
2018-03-11T10:45:49.261Z,29.03
2018-03-11T10:48:17.619Z,29.56
2018-03-11T10:50:46.123Z,29.28
2018-03-11T10:53:14.445Z,29.26
2018-03-11T10:55:43.203Z,29.52
2018-03-11T10:58:12.097Z,30.04
2018-03-11T11:00:43.251Z,29.10
2018-03-11T11:03:17.493Z,28.93
2018-03-11T11:05:46.256Z,29.55
2018-03-11T11:08:14.723Z,29.35
2018-03-11T11:10:43.085Z,30.04
2018-03-11T11:13:11.441Z,29.30
2018-03-11T11:15:39.859Z,28.75
2018-03-11T11:18:08.232Z,28.35
2018-03-11T11:20:36.606Z,27.07
2018-03-11T11:23:04.966Z,26.73
2018-03-11T11:25:33.387Z,26.75
2018-03-11T11:28:01.893Z,26.61
2018-03-11T11:30:30.711Z,26.67
2018-03-11T11:32:59.074Z,26.06
2018-03-11T11:35:27.456Z,25.19
2018-03-11T11:37:55.903Z,24.20
2018-03-11T11:40:24.260Z,24.44
2018-03-11T11:42:52.605Z,24.01
2018-03-11T11:45:21.020Z,23.43
2018-03-11T11:47:49.388Z,22.97
2018-03-11T11:50:17.772Z,22.76
2018-03-11T11:52:46.152Z,22.87
2018-03-11T11:55:14.571Z,23.16
2018-03-11T11:57:42.912Z,22.75
2018-03-11T12:00:11.268Z,22.79
2018-03-11T12:02:39.620Z,23.44
2018-03-11T12:05:08.435Z,23.23
2018-03-11T12:07:36.817Z,23.04
2018-03-11T12:10:05.184Z,22.44
2018-03-11T12:12:33.539Z,22.32
2018-03-11T12:15:02.377Z,21.79
2018-03-11T12:17:30.772Z,21.80
2018-03-11T12:19:59.242Z,21.74
2018-03-11T12:22:27.645Z,21.76
2018-03-11T12:24:56.019Z,21.86
2018-03-11T12:27:24.470Z,22.35
2018-03-11T12:29:52.864Z,22.65
2018-03-11T12:32:21.215Z,21.83
2018-03-11T12:34:49.580Z,21.76
2018-03-11T12:37:17.929Z,21.40
2018-03-11T12:39:46.783Z,21.57
2018-03-11T12:42:15.356Z,21.07
2018-03-11T12:44:43.748Z,21.22
2018-03-11T12:47:12.116Z,21.60
2018-03-11T12:49:40.489Z,21.67
2018-03-11T12:52:08.843Z,21.46
2018-03-11T12:54:37.272Z,21.74
2018-03-11T12:57:05.635Z,21.31
2018-03-11T12:59:34.005Z,21.20
2018-03-11T13:02:02.356Z,21.87
2018-03-11T13:04:30.752Z,21.53
2018-03-11T13:06:59.204Z,21.56
2018-03-11T13:09:28.039Z,21.71
2018-03-11T13:11:56.390Z,21.87
2018-03-11T13:14:24.815Z,22.07
2018-03-11T13:16:53.163Z,21.85
2018-03-11T13:19:21.523Z,21.77
2018-03-11T13:21:49.887Z,22.09
2018-03-11T13:24:18.635Z,22.76
2018-03-11T13:26:47.202Z,23.23
2018-03-11T13:29:15.564Z,23.07
2018-03-11T13:31:43.917Z,23.35
2018-03-11T13:34:24.468Z,23.64
2018-03-11T13:36:53.211Z,23.31
2018-03-11T13:39:39.512Z,23.85
2018-03-11T13:42:07.861Z,23.57
2018-03-11T13:44:36.211Z,23.02
2018-03-11T13:47:09.036Z,23.70
2018-03-11T13:49:37.402Z,23.62
2018-03-11T13:52:23.623Z,23.15
2018-03-11T13:54:52.000Z,23.12
2018-03-11T14:00:50.745Z,23.04
2018-03-11T14:03:19.100Z,23.18
2018-03-11T14:05:47.481Z,23.10
2018-03-11T14:08:15.889Z,23.41
2018-03-11T14:10:44.672Z,23.13
2018-03-11T14:13:13.024Z,22.64
2018-03-11T14:15:41.534Z,22.92
2018-03-11T14:18:10.288Z,22.95
2018-03-11T14:20:38.648Z,23.22
2018-03-11T14:23:06.997Z,23.31
2018-03-11T14:25:35.768Z,22.76
2018-03-11T14:28:04.116Z,23.16
2018-03-11T14:30:32.483Z,23.26
2018-03-11T14:33:00.842Z,23.06
2018-03-11T14:35:29.215Z,23.03
2018-03-11T14:37:57.632Z,22.44
2018-03-11T14:40:25.996Z,22.26
2018-03-11T14:42:54.366Z,22.40
2018-03-11T14:45:22.739Z,22.77
2018-03-11T14:47:51.120Z,22.93
2018-03-11T14:50:20.044Z,23.13
2018-03-11T14:52:48.464Z,22.95
2018-03-11T14:55:17.426Z,23.20
2018-03-11T14:57:46.338Z,23.03
2018-03-11T15:00:14.856Z,23.08
2018-03-11T15:02:43.523Z,22.70
2018-03-11T15:05:12.061Z,22.05
2018-03-11T15:07:40.615Z,22.24
2018-03-11T15:10:09.624Z,22.27
2018-03-11T15:12:38.382Z,22.28
2018-03-11T15:15:06.786Z,22.51
2018-03-11T15:17:35.142Z,22.31
2018-03-11T15:20:03.516Z,22.14
2018-03-11T15:22:31.968Z,21.69
2018-03-11T15:25:01.140Z,21.56
2018-03-11T15:27:29.508Z,21.59
2018-03-11T15:29:58.833Z,21.68
2018-03-11T15:32:27.196Z,22.10
2018-03-11T15:34:55.590Z,21.94
2018-03-11T15:37:23.970Z,21.93
2018-03-11T15:39:52.324Z,21.57
2018-03-11T15:42:20.674Z,21.62
2018-03-11T15:44:49.069Z,22.03
2018-03-11T15:47:17.651Z,22.11
2018-03-11T15:49:46.032Z,22.15
2018-03-11T15:52:15.186Z,21.86
2018-03-11T15:54:44.054Z,21.59
2018-03-11T15:57:12.489Z,21.49
2018-03-11T15:59:40.871Z,21.40
2018-03-11T16:02:09.238Z,21.40
2018-03-11T16:04:37.601Z,21.36
2018-03-11T16:07:05.950Z,21.51
2018-03-11T16:09:34.320Z,21.89
2018-03-11T16:12:02.672Z,21.73
2018-03-11T16:14:32.555Z,21.87
2018-03-11T16:17:00.916Z,21.89
2018-03-11T16:19:30.188Z,21.89
2018-03-11T16:21:58.555Z,21.84
2018-03-11T16:24:28.872Z,21.64
2018-03-11T16:26:55.710Z,21.57
2018-03-11T16:29:24.091Z,21.48
2018-03-11T16:31:52.506Z,21.19
2018-03-11T16:34:20.844Z,21.36
2018-03-11T16:36:49.327Z,21.53
2018-03-11T16:39:17.708Z,21.36
2018-03-11T16:41:46.062Z,21.40
2018-03-11T16:44:14.439Z,21.11
2018-03-11T16:46:42.818Z,20.89
2018-03-11T16:49:11.195Z,20.55
2018-03-11T16:51:39.565Z,20.64
2018-03-11T16:54:07.926Z,20.86
2018-03-11T16:56:36.676Z,20.53
2018-03-11T16:59:05.047Z,20.12
2018-03-11T17:01:33.464Z,20.10
2018-03-11T17:04:01.829Z,20.15
2018-03-11T17:06:30.198Z,20.11
2018-03-11T17:08:58.644Z,20.21
2018-03-11T17:11:27.004Z,20.25
2018-03-11T17:13:55.379Z,20.33
2018-03-11T17:16:24.150Z,20.32
2018-03-11T17:18:52.931Z,20.23
2018-03-11T17:21:21.299Z,20.36
2018-03-11T17:23:49.671Z,20.14
2018-03-11T17:26:18.036Z,20.28
2018-03-11T17:28:46.419Z,20.19
2018-03-11T17:31:14.809Z,20.19
2018-03-11T17:33:43.172Z,20.23
2018-03-11T17:36:11.553Z,20.20
2018-03-11T17:38:39.944Z,20.04
2018-03-11T17:41:08.329Z,20.21
2018-03-11T17:43:36.792Z,20.03
2018-03-11T17:46:05.173Z,20.14
2018-03-11T17:48:33.536Z,20.12
2018-03-11T17:51:01.913Z,20.01
2018-03-11T17:53:30.289Z,19.70
2018-03-11T17:55:58.656Z,19.92
2018-03-11T17:58:27.021Z,19.68
2018-03-11T18:00:55.380Z,19.64
2018-03-11T18:03:24.139Z,19.49
2018-03-11T18:05:52.493Z,19.45
2018-03-11T18:08:20.887Z,19.54
2018-03-11T18:10:49.239Z,19.41
2018-03-11T18:13:17.614Z,19.53
2018-03-11T18:15:45.993Z,19.37
2018-03-11T18:18:14.372Z,19.55
2018-03-11T18:20:42.814Z,19.61
2018-03-11T18:23:11.619Z,19.49
2018-03-11T18:25:39.999Z,19.09
2018-03-11T18:28:08.762Z,19.01
2018-03-11T18:30:37.121Z,19.04
2018-03-11T18:33:05.503Z,19.05
2018-03-11T18:35:33.869Z,19.03
2018-03-11T18:38:02.250Z,18.63
2018-03-11T18:40:30.613Z,18.85
2018-03-11T18:42:59.252Z,18.89
2018-03-11T18:45:27.595Z,18.70
2018-03-11T18:47:56.024Z,18.61
2018-03-11T18:50:24.609Z,18.71
2018-03-11T18:52:53.011Z,18.68
2018-03-11T18:55:21.432Z,18.64
2018-03-11T18:57:49.868Z,18.78
2018-03-11T19:02:52.890Z,18.53
2018-03-11T19:05:21.259Z,18.72
2018-03-11T19:07:49.636Z,18.80
2018-03-11T19:10:17.988Z,18.60
2018-03-11T19:12:46.418Z,18.52
2018-03-11T19:15:14.773Z,18.47
2018-03-11T19:17:43.220Z,18.81
2018-03-11T19:20:11.575Z,18.66
2018-03-11T19:22:39.945Z,18.60
2018-03-11T19:25:08.425Z,18.39
2018-03-11T19:27:36.812Z,18.05
2018-03-11T19:30:05.220Z,17.92
2018-03-11T19:32:34.010Z,18.09
2018-03-11T19:35:02.800Z,18.23
2018-03-11T19:37:31.254Z,18.28
2018-03-11T19:39:59.636Z,18.24
2018-03-11T19:42:28.027Z,17.99
2018-03-11T19:44:56.784Z,17.81
2018-03-11T19:47:25.147Z,17.87
2018-03-11T19:49:53.537Z,17.81
2018-03-11T19:52:21.910Z,17.50
2018-03-11T19:54:50.268Z,17.58
2018-03-11T19:57:18.646Z,17.81
2018-03-11T19:59:47.022Z,17.73
2018-03-11T20:02:15.428Z,17.75
2018-03-11T20:04:43.794Z,17.66
2018-03-11T20:07:12.199Z,17.62
2018-03-11T20:09:40.596Z,17.71
2018-03-11T20:12:09.004Z,17.19
2018-03-11T20:14:37.397Z,17.37
2018-03-11T20:17:05.792Z,17.24
2018-03-11T20:19:34.156Z,17.37
2018-03-11T20:22:02.515Z,17.40
2018-03-11T20:24:31.040Z,17.53
2018-03-11T20:26:59.415Z,17.28
2018-03-11T20:29:27.812Z,17.35
2018-03-11T20:31:56.204Z,17.10
2018-03-11T20:34:24.577Z,17.28
2018-03-11T20:36:52.962Z,17.51
2018-03-11T20:39:21.368Z,17.44
2018-03-11T20:41:49.752Z,17.68
2018-03-11T20:44:18.148Z,17.54
2018-03-11T20:46:46.638Z,17.49
2018-03-11T20:49:15.028Z,17.43
2018-03-11T20:51:43.498Z,17.45
2018-03-11T20:54:11.880Z,17.24
2018-03-11T20:56:40.287Z,16.81
2018-03-11T20:59:08.985Z,17.19
2018-03-11T21:01:37.382Z,17.44
2018-03-11T21:04:06.243Z,17.28
2018-03-11T21:06:34.600Z,17.24
2018-03-11T21:09:02.988Z,17.15
2018-03-11T21:11:31.387Z,17.15
2018-03-11T21:13:59.780Z,16.72
2018-03-11T21:16:28.493Z,16.88
2018-03-11T21:18:57.224Z,16.83
2018-03-11T21:21:25.702Z,16.61
2018-03-11T21:23:54.074Z,16.86
2018-03-11T21:26:22.530Z,16.73
2018-03-11T21:28:50.895Z,16.48
2018-03-11T21:31:19.274Z,16.77
2018-03-11T21:33:47.696Z,16.86
2018-03-11T21:36:16.068Z,16.72
2018-03-11T21:38:44.450Z,16.52
2018-03-11T21:41:13.248Z,16.59
2018-03-11T21:43:41.629Z,16.63
2018-03-11T21:46:10.009Z,16.52
2018-03-11T21:48:38.373Z,16.72
2018-03-11T21:51:06.757Z,16.61
2018-03-11T21:53:35.145Z,16.51
2018-03-11T21:56:03.549Z,16.66
2018-03-11T21:58:31.999Z,16.67
2018-03-11T22:01:00.557Z,16.60
2018-03-11T22:03:28.958Z,16.77
2018-03-11T22:05:57.341Z,16.38
2018-03-11T22:08:25.707Z,16.72
2018-03-11T22:10:54.202Z,16.68
2018-03-11T22:13:22.584Z,16.47
2018-03-11T22:15:51.083Z,16.60
2018-03-11T22:18:19.893Z,16.21
2018-03-11T22:20:48.276Z,16.34
2018-03-11T22:23:17.064Z,16.29
2018-03-11T22:25:45.545Z,16.60
2018-03-11T22:28:13.976Z,16.60
2018-03-11T22:30:42.391Z,16.76
2018-03-11T22:33:11.224Z,16.69
2018-03-11T22:35:39.996Z,16.59
2018-03-11T22:38:08.390Z,16.59
2018-03-11T22:40:36.767Z,16.42
2018-03-11T22:43:05.157Z,16.55
2018-03-11T22:45:33.576Z,16.19
2018-03-11T22:48:02.028Z,16.17
2018-03-11T22:50:30.443Z,16.34
2018-03-11T22:52:58.861Z,16.43
2018-03-11T22:55:28.177Z,16.28
2018-03-11T22:57:56.599Z,16.06
2018-03-11T23:00:24.959Z,16.06
2018-03-11T23:02:53.340Z,16.28
2018-03-11T23:05:21.714Z,16.32
2018-03-11T23:07:51.004Z,16.22
2018-03-11T23:10:19.420Z,16.12
2018-03-11T23:12:48.221Z,15.91
2018-03-11T23:15:16.976Z,15.79
2018-03-11T23:17:45.355Z,15.97
2018-03-11T23:20:13.722Z,16.10
2018-03-11T23:22:42.097Z,16.02
2018-03-11T23:25:10.455Z,15.91
2018-03-11T23:27:38.828Z,15.72
2018-03-11T23:30:07.203Z,15.92
2018-03-11T23:32:35.582Z,15.87
2018-03-11T23:35:03.952Z,16.05
2018-03-11T23:37:32.384Z,16.19
2018-03-11T23:40:00.778Z,15.79
2018-03-11T23:42:29.143Z,15.86
2018-03-11T23:44:57.516Z,15.72
2018-03-11T23:47:25.926Z,15.66
2018-03-11T23:49:54.769Z,15.72
2018-03-11T23:52:23.156Z,15.81
2018-03-11T23:54:51.532Z,15.47
2018-03-11T23:57:19.905Z,15.46
2018-03-11T23:59:48.265Z,15.20
